sensor_id;sensor_type;location;lat;lon;timestamp;P1;durP1;ratioP1;P2;durP2;ratioP2
45940;SDS011;31858;46.008;8.978;2023-09-19T00:09:14;8.75;;;2.40;;
45940;SDS011;31858;46.008;8.978;2023-09-19T00:19:17;2.38;;;1.63;;
45940;SDS011;31858;46.008;8.978;2023-09-19T00:29:18;5.05;;;2.20;;
45940;SDS011;31858;46.008;8.978;2023-09-19T00:39:21;4.20;;;1.80;;
45940;SDS011;31858;46.008;8.978;2023-09-19T00:49:25;4.38;;;1.90;;
45940;SDS011;31858;46.008;8.978;2023-09-19T00:59:28;5.10;;;1.83;;
45940;SDS011;31858;46.008;8.978;2023-09-19T01:09:33;5.15;;;1.90;;
45940;SDS011;31858;46.008;8.978;2023-09-19T01:19:44;6.32;;;1.80;;
45940;SDS011;31858;46.008;8.978;2023-09-19T01:30:10;5.70;;;2.00;;
45940;SDS011;31858;46.008;8.978;2023-09-19T01:40:16;6.10;;;2.10;;
45940;SDS011;31858;46.008;8.978;2023-09-19T01:50:23;8.68;;;2.58;;
45940;SDS011;31858;46.008;8.978;2023-09-19T02:00:32;3.92;;;1.98;;
45940;SDS011;31858;46.008;8.978;2023-09-19T02:10:36;8.60;;;2.55;;
45940;SDS011;31858;46.008;8.978;2023-09-19T02:20:38;4.07;;;2.13;;
45940;SDS011;31858;46.008;8.978;2023-09-19T02:30:41;3.35;;;2.30;;
45940;SDS011;31858;46.008;8.978;2023-09-19T02:40:42;3.25;;;2.45;;
45940;SDS011;31858;46.008;8.978;2023-09-19T02:50:45;5.80;;;2.38;;
45940;SDS011;31858;46.008;8.978;2023-09-19T03:00:47;5.85;;;2.90;;
45940;SDS011;31858;46.008;8.978;2023-09-19T03:10:52;2.58;;;2.00;;
45940;SDS011;31858;46.008;8.978;2023-09-19T03:20:54;3.95;;;2.40;;
45940;SDS011;31858;46.008;8.978;2023-09-19T03:31:01;5.10;;;2.63;;
45940;SDS011;31858;46.008;8.978;2023-09-19T03:41:03;5.63;;;2.47;;
45940;SDS011;31858;46.008;8.978;2023-09-19T03:51:06;7.93;;;2.83;;
45940;SDS011;31858;46.008;8.978;2023-09-19T04:01:07;5.07;;;2.10;;
45940;SDS011;31858;46.008;8.978;2023-09-19T04:11:10;5.50;;;2.17;;
45940;SDS011;31858;46.008;8.978;2023-09-19T04:21:12;6.85;;;1.77;;
45940;SDS011;31858;46.008;8.978;2023-09-19T04:31:15;5.90;;;1.73;;
45940;SDS011;31858;46.008;8.978;2023-09-19T04:41:18;4.32;;;1.63;;
45940;SDS011;31858;46.008;8.978;2023-09-19T04:51:21;3.78;;;1.88;;
45940;SDS011;31858;46.008;8.978;2023-09-19T05:01:23;9.45;;;2.55;;
45940;SDS011;31858;46.008;8.978;2023-09-19T05:11:26;7.63;;;2.30;;
45940;SDS011;31858;46.008;8.978;2023-09-19T05:21:30;8.00;;;2.53;;
45940;SDS011;31858;46.008;8.978;2023-09-19T05:31:34;8.75;;;2.63;;
45940;SDS011;31858;46.008;8.978;2023-09-19T05:41:40;7.00;;;2.60;;
45940;SDS011;31858;46.008;8.978;2023-09-19T05:51:44;8.75;;;2.88;;
45940;SDS011;31858;46.008;8.978;2023-09-19T06:01:45;6.38;;;2.40;;
45940;SDS011;31858;46.008;8.978;2023-09-19T06:11:48;4.50;;;1.83;;
45940;SDS011;31858;46.008;8.978;2023-09-19T06:21:52;7.97;;;1.98;;
45940;SDS011;31858;46.008;8.978;2023-09-19T06:31:55;3.95;;;2.05;;
45940;SDS011;31858;46.008;8.978;2023-09-19T06:41:56;4.25;;;1.92;;
45940;SDS011;31858;46.008;8.978;2023-09-19T06:52:01;6.05;;;2.10;;
45940;SDS011;31858;46.008;8.978;2023-09-19T07:02:03;2.72;;;1.92;;
45940;SDS011;31858;46.008;8.978;2023-09-19T07:12:07;4.82;;;2.22;;
45940;SDS011;31858;46.008;8.978;2023-09-19T07:22:09;6.32;;;2.05;;
45940;SDS011;31858;46.008;8.978;2023-09-19T07:32:12;3.13;;;1.88;;
45940;SDS011;31858;46.008;8.978;2023-09-19T07:42:14;6.38;;;1.75;;
45940;SDS011;31858;46.008;8.978;2023-09-19T07:52:19;6.38;;;2.00;;
45940;SDS011;31858;46.008;8.978;2023-09-19T08:02:22;5.95;;;2.05;;
45940;SDS011;31858;46.008;8.978;2023-09-19T08:12:25;3.22;;;1.65;;
45940;SDS011;31858;46.008;8.978;2023-09-19T08:22:27;5.07;;;1.90;;
45940;SDS011;31858;46.008;8.978;2023-09-19T08:32:30;5.03;;;2.35;;
45940;SDS011;31858;46.008;8.978;2023-09-19T08:42:31;4.75;;;2.17;;
45940;SDS011;31858;46.008;8.978;2023-09-19T08:52:41;9.48;;;2.08;;
45940;SDS011;31858;46.008;8.978;2023-09-19T09:02:44;8.40;;;3.42;;
45940;SDS011;31858;46.008;8.978;2023-09-19T09:12:48;8.35;;;2.55;;
45940;SDS011;31858;46.008;8.978;2023-09-19T09:22:53;6.85;;;2.88;;
45940;SDS011;31858;46.008;8.978;2023-09-19T09:33:10;3.45;;;2.67;;
45940;SDS011;31858;46.008;8.978;2023-09-19T09:43:24;6.28;;;2.63;;
45940;SDS011;31858;46.008;8.978;2023-09-19T09:53:29;4.82;;;2.70;;
45940;SDS011;31858;46.008;8.978;2023-09-19T10:03:32;4.78;;;2.40;;
45940;SDS011;31858;46.008;8.978;2023-09-19T10:13:40;5.93;;;2.40;;
45940;SDS011;31858;46.008;8.978;2023-09-19T10:23:43;7.45;;;2.53;;
45940;SDS011;31858;46.008;8.978;2023-09-19T10:33:47;5.57;;;2.08;;
45940;SDS011;31858;46.008;8.978;2023-09-19T10:43:51;3.92;;;2.28;;
45940;SDS011;31858;46.008;8.978;2023-09-19T10:53:59;7.00;;;2.40;;
45940;SDS011;31858;46.008;8.978;2023-09-19T11:04:20;2.33;;;1.80;;
45940;SDS011;31858;46.008;8.978;2023-09-19T11:14:41;1.60;;;1.33;;
45940;SDS011;31858;46.008;8.978;2023-09-19T11:24:45;6.22;;;1.40;;
45940;SDS011;31858;46.008;8.978;2023-09-19T11:34:48;3.20;;;1.63;;
45940;SDS011;31858;46.008;8.978;2023-09-19T11:44:51;3.42;;;1.50;;
45940;SDS011;31858;46.008;8.978;2023-09-19T11:54:57;2.92;;;1.77;;
45940;SDS011;31858;46.008;8.978;2023-09-19T12:05:01;3.25;;;1.40;;
45940;SDS011;31858;46.008;8.978;2023-09-19T12:15:07;3.88;;;1.20;;
45940;SDS011;31858;46.008;8.978;2023-09-19T12:25:10;2.28;;;1.27;;
45940;SDS011;31858;46.008;8.978;2023-09-19T12:35:27;4.70;;;1.52;;
45940;SDS011;31858;46.008;8.978;2023-09-19T12:45:30;5.90;;;1.73;;
45940;SDS011;31858;46.008;8.978;2023-09-19T12:55:35;2.67;;;1.45;;
45940;SDS011;31858;46.008;8.978;2023-09-19T13:05:51;8.68;;;1.33;;
45940;SDS011;31858;46.008;8.978;2023-09-19T13:15:55;3.60;;;1.63;;
45940;SDS011;31858;46.008;8.978;2023-09-19T13:25:58;4.55;;;1.52;;
45940;SDS011;31858;46.008;8.978;2023-09-19T13:36:01;3.08;;;1.65;;
45940;SDS011;31858;46.008;8.978;2023-09-19T13:46:03;2.58;;;1.83;;
45940;SDS011;31858;46.008;8.978;2023-09-19T13:56:06;4.07;;;1.60;;
45940;SDS011;31858;46.008;8.978;2023-09-19T14:06:08;4.93;;;1.83;;
45940;SDS011;31858;46.008;8.978;2023-09-19T14:16:12;5.47;;;1.65;;
45940;SDS011;31858;46.008;8.978;2023-09-19T14:26:14;5.10;;;1.75;;
45940;SDS011;31858;46.008;8.978;2023-09-19T14:36:17;2.78;;;1.98;;
45940;SDS011;31858;46.008;8.978;2023-09-19T14:46:19;3.50;;;1.88;;
45940;SDS011;31858;46.008;8.978;2023-09-19T14:56:22;4.32;;;1.83;;
45940;SDS011;31858;46.008;8.978;2023-09-19T15:06:25;3.65;;;1.88;;
45940;SDS011;31858;46.008;8.978;2023-09-19T15:16:28;4.68;;;2.50;;
45940;SDS011;31858;46.008;8.978;2023-09-19T15:26:30;6.63;;;2.08;;
45940;SDS011;31858;46.008;8.978;2023-09-19T15:36:33;4.72;;;2.03;;
45940;SDS011;31858;46.008;8.978;2023-09-19T15:46:34;4.28;;;2.10;;
45940;SDS011;31858;46.008;8.978;2023-09-19T15:56:38;3.08;;;1.80;;
45940;SDS011;31858;46.008;8.978;2023-09-19T16:06:41;2.30;;;1.98;;
45940;SDS011;31858;46.008;8.978;2023-09-19T16:16:44;1.80;;;1.70;;
45940;SDS011;31858;46.008;8.978;2023-09-19T16:26:45;2.95;;;1.60;;
45940;SDS011;31858;46.008;8.978;2023-09-19T16:36:49;4.47;;;1.83;;
45940;SDS011;31858;46.008;8.978;2023-09-19T16:46:51;3.53;;;1.92;;
45940;SDS011;31858;46.008;8.978;2023-09-19T16:56:54;2.58;;;1.98;;
45940;SDS011;31858;46.008;8.978;2023-09-19T17:06:56;2.78;;;1.67;;
45940;SDS011;31858;46.008;8.978;2023-09-19T17:16:59;5.55;;;2.20;;
45940;SDS011;31858;46.008;8.978;2023-09-19T17:27:00;3.13;;;2.05;;
45940;SDS011;31858;46.008;8.978;2023-09-19T17:37:03;4.05;;;1.90;;
45940;SDS011;31858;46.008;8.978;2023-09-19T17:47:05;4.00;;;1.98;;
45940;SDS011;31858;46.008;8.978;2023-09-19T17:57:08;6.15;;;2.33;;
45940;SDS011;31858;46.008;8.978;2023-09-19T18:07:10;7.05;;;2.38;;
45940;SDS011;31858;46.008;8.978;2023-09-19T18:17:13;6.00;;;2.40;;
45940;SDS011;31858;46.008;8.978;2023-09-19T18:27:15;8.00;;;2.58;;
45940;SDS011;31858;46.008;8.978;2023-09-19T18:37:18;2.92;;;2.35;;
45940;SDS011;31858;46.008;8.978;2023-09-19T18:47:20;9.02;;;2.58;;
45940;SDS011;31858;46.008;8.978;2023-09-19T18:57:24;4.65;;;2.42;;
45940;SDS011;31858;46.008;8.978;2023-09-19T19:07:26;3.67;;;2.30;;
45940;SDS011;31858;46.008;8.978;2023-09-19T19:17:29;4.55;;;2.40;;
45940;SDS011;31858;46.008;8.978;2023-09-19T19:27:34;9.75;;;2.97;;
45940;SDS011;31858;46.008;8.978;2023-09-19T19:37:37;3.60;;;2.05;;
45940;SDS011;31858;46.008;8.978;2023-09-19T19:47:39;5.75;;;2.13;;
45940;SDS011;31858;46.008;8.978;2023-09-19T19:57:42;4.20;;;2.40;;
45940;SDS011;31858;46.008;8.978;2023-09-19T20:07:43;8.63;;;2.47;;
45940;SDS011;31858;46.008;8.978;2023-09-19T20:17:47;5.15;;;1.90;;
45940;SDS011;31858;46.008;8.978;2023-09-19T20:27:49;5.60;;;2.03;;
45940;SDS011;31858;46.008;8.978;2023-09-19T20:37:52;8.30;;;2.30;;
45940;SDS011;31858;46.008;8.978;2023-09-19T20:48:00;6.50;;;3.03;;
45940;SDS011;31858;46.008;8.978;2023-09-19T20:58:03;5.38;;;2.60;;
45940;SDS011;31858;46.008;8.978;2023-09-19T21:08:05;5.80;;;2.50;;
45940;SDS011;31858;46.008;8.978;2023-09-19T21:18:08;4.55;;;2.40;;
45940;SDS011;31858;46.008;8.978;2023-09-19T21:28:09;6.35;;;2.47;;
45940;SDS011;31858;46.008;8.978;2023-09-19T21:38:14;5.03;;;2.30;;
45940;SDS011;31858;46.008;8.978;2023-09-19T21:48:15;8.60;;;2.67;;
45940;SDS011;31858;46.008;8.978;2023-09-19T21:58:19;8.20;;;2.47;;
45940;SDS011;31858;46.008;8.978;2023-09-19T22:08:20;7.22;;;2.35;;
45940;SDS011;31858;46.008;8.978;2023-09-19T22:18:23;5.40;;;2.70;;
45940;SDS011;31858;46.008;8.978;2023-09-19T22:28:25;3.63;;;2.38;;
45940;SDS011;31858;46.008;8.978;2023-09-19T22:38:30;5.97;;;2.80;;
45940;SDS011;31858;46.008;8.978;2023-09-19T22:48:33;6.10;;;2.38;;
45940;SDS011;31858;46.008;8.978;2023-09-19T22:58:37;5.45;;;3.13;;
45940;SDS011;31858;46.008;8.978;2023-09-19T23:08:39;6.63;;;2.90;;
45940;SDS011;31858;46.008;8.978;2023-09-19T23:18:42;8.23;;;2.72;;
45940;SDS011;31858;46.008;8.978;2023-09-19T23:28:45;4.22;;;2.63;;
45940;SDS011;31858;46.008;8.978;2023-09-19T23:38:49;8.38;;;2.63;;
45940;SDS011;31858;46.008;8.978;2023-09-19T23:48:51;6.10;;;3.08;;
45940;SDS011;31858;46.008;8.978;2023-09-19T23:58:55;6.35;;;4.00;;
